sensor_id;sensor_type;location;lat;lon;timestamp;P1;durP1;ratioP1;P2;durP2;ratioP2
77105;SDS011;66057;54.718;18.426;2022-12-18T00:00:29;51.28;;;28.67;;
77105;SDS011;66057;54.718;18.426;2022-12-18T00:03:15;49.13;;;26.45;;
77105;SDS011;66057;54.718;18.426;2022-12-18T00:05:48;61.90;;;36.00;;
77105;SDS011;66057;54.718;18.426;2022-12-18T00:08:15;69.03;;;38.08;;
77105;SDS011;66057;54.718;18.426;2022-12-18T00:10:42;67.18;;;38.47;;
77105;SDS011;66057;54.718;18.426;2022-12-18T00:13:09;55.63;;;33.30;;
77105;SDS011;66057;54.718;18.426;2022-12-18T00:15:36;64.78;;;36.97;;
77105;SDS011;66057;54.718;18.426;2022-12-18T00:18:02;52.95;;;30.95;;
77105;SDS011;66057;54.718;18.426;2022-12-18T00:20:28;62.65;;;34.47;;
77105;SDS011;66057;54.718;18.426;2022-12-18T00:22:54;54.95;;;35.95;;
77105;SDS011;66057;54.718;18.426;2022-12-18T00:25:20;52.92;;;30.80;;
77105;SDS011;66057;54.718;18.426;2022-12-18T00:27:46;58.85;;;34.65;;
77105;SDS011;66057;54.718;18.426;2022-12-18T00:30:13;50.72;;;26.23;;
77105;SDS011;66057;54.718;18.426;2022-12-18T00:32:39;63.58;;;34.60;;
77105;SDS011;66057;54.718;18.426;2022-12-18T00:35:05;63.25;;;32.83;;
77105;SDS011;66057;54.718;18.426;2022-12-18T00:37:33;60.90;;;32.13;;
77105;SDS011;66057;54.718;18.426;2022-12-18T00:42:25;63.05;;;34.95;;
77105;SDS011;66057;54.718;18.426;2022-12-18T00:45:09;59.58;;;33.55;;
77105;SDS011;66057;54.718;18.426;2022-12-18T00:47:35;66.45;;;42.15;;
77105;SDS011;66057;54.718;18.426;2022-12-18T00:50:01;58.25;;;36.30;;
77105;SDS011;66057;54.718;18.426;2022-12-18T00:52:26;65.18;;;37.08;;
77105;SDS011;66057;54.718;18.426;2022-12-18T00:54:52;68.72;;;43.42;;
77105;SDS011;66057;54.718;18.426;2022-12-18T00:57:18;62.60;;;35.75;;
77105;SDS011;66057;54.718;18.426;2022-12-18T00:59:43;58.92;;;33.33;;
77105;SDS011;66057;54.718;18.426;2022-12-18T01:02:09;58.47;;;39.15;;
77105;SDS011;66057;54.718;18.426;2022-12-18T01:04:35;54.70;;;34.05;;
77105;SDS011;66057;54.718;18.426;2022-12-18T01:07:00;62.28;;;32.03;;
77105;SDS011;66057;54.718;18.426;2022-12-18T01:09:26;69.82;;;39.47;;
77105;SDS011;66057;54.718;18.426;2022-12-18T01:11:52;62.80;;;37.88;;
77105;SDS011;66057;54.718;18.426;2022-12-18T01:14:18;69.30;;;38.40;;
77105;SDS011;66057;54.718;18.426;2022-12-18T01:16:43;51.42;;;26.85;;
77105;SDS011;66057;54.718;18.426;2022-12-18T01:19:09;57.08;;;32.65;;
77105;SDS011;66057;54.718;18.426;2022-12-18T01:21:35;44.30;;;24.40;;
77105;SDS011;66057;54.718;18.426;2022-12-18T01:24:00;49.25;;;28.23;;
77105;SDS011;66057;54.718;18.426;2022-12-18T01:26:26;70.57;;;40.63;;
77105;SDS011;66057;54.718;18.426;2022-12-18T01:28:55;61.42;;;32.97;;
77105;SDS011;66057;54.718;18.426;2022-12-18T01:31:25;57.53;;;30.67;;
77105;SDS011;66057;54.718;18.426;2022-12-18T01:33:53;61.40;;;38.38;;
77105;SDS011;66057;54.718;18.426;2022-12-18T01:36:21;67.38;;;35.90;;
77105;SDS011;66057;54.718;18.426;2022-12-18T01:38:49;56.95;;;35.60;;
77105;SDS011;66057;54.718;18.426;2022-12-18T01:41:16;56.35;;;33.35;;
77105;SDS011;66057;54.718;18.426;2022-12-18T01:43:44;65.60;;;38.97;;
77105;SDS011;66057;54.718;18.426;2022-12-18T01:46:13;68.13;;;39.50;;
77105;SDS011;66057;54.718;18.426;2022-12-18T01:48:40;67.50;;;40.28;;
77105;SDS011;66057;54.718;18.426;2022-12-18T01:51:06;64.75;;;36.17;;
77105;SDS011;66057;54.718;18.426;2022-12-18T01:53:35;57.28;;;30.70;;
77105;SDS011;66057;54.718;18.426;2022-12-18T01:56:02;59.58;;;33.83;;
77105;SDS011;66057;54.718;18.426;2022-12-18T01:59:02;64.38;;;35.83;;
77105;SDS011;66057;54.718;18.426;2022-12-18T02:01:31;48.30;;;26.20;;
77105;SDS011;66057;54.718;18.426;2022-12-18T02:04:16;57.83;;;31.42;;
77105;SDS011;66057;54.718;18.426;2022-12-18T02:06:46;62.83;;;35.80;;
77105;SDS011;66057;54.718;18.426;2022-12-18T02:18:12;67.60;;;39.80;;
77105;SDS011;66057;54.718;18.426;2022-12-18T02:20:45;63.30;;;38.10;;
77105;SDS011;66057;54.718;18.426;2022-12-18T02:28:36;48.70;;;26.08;;
77105;SDS011;66057;54.718;18.426;2022-12-18T02:31:08;63.00;;;35.78;;
77105;SDS011;66057;54.718;18.426;2022-12-18T02:33:39;60.58;;;38.08;;
77105;SDS011;66057;54.718;18.426;2022-12-18T02:36:07;57.88;;;30.42;;
77105;SDS011;66057;54.718;18.426;2022-12-18T02:38:34;42.33;;;24.02;;
77105;SDS011;66057;54.718;18.426;2022-12-18T02:41:01;56.67;;;32.90;;
77105;SDS011;66057;54.718;18.426;2022-12-18T02:43:29;52.95;;;33.83;;
77105;SDS011;66057;54.718;18.426;2022-12-18T02:45:58;48.45;;;25.90;;
77105;SDS011;66057;54.718;18.426;2022-12-18T02:48:30;57.20;;;31.75;;
77105;SDS011;66057;54.718;18.426;2022-12-18T02:51:15;58.50;;;32.85;;
77105;SDS011;66057;54.718;18.426;2022-12-18T02:53:51;59.30;;;31.98;;
77105;SDS011;66057;54.718;18.426;2022-12-18T02:56:51;46.70;;;23.75;;
77105;SDS011;66057;54.718;18.426;2022-12-18T02:59:22;57.72;;;36.47;;
77105;SDS011;66057;54.718;18.426;2022-12-18T03:04:42;55.92;;;29.00;;
77105;SDS011;66057;54.718;18.426;2022-12-18T03:09:44;52.20;;;29.88;;
77105;SDS011;66057;54.718;18.426;2022-12-18T03:12:18;47.67;;;24.00;;
77105;SDS011;66057;54.718;18.426;2022-12-18T03:14:58;52.92;;;32.92;;
77105;SDS011;66057;54.718;18.426;2022-12-18T03:17:26;27.80;;;17.80;;
77105;SDS011;66057;54.718;18.426;2022-12-18T03:19:54;54.85;;;30.38;;
77105;SDS011;66057;54.718;18.426;2022-12-18T03:22:24;41.13;;;25.38;;
77105;SDS011;66057;54.718;18.426;2022-12-18T03:24:52;56.72;;;28.55;;
77105;SDS011;66057;54.718;18.426;2022-12-18T03:27:21;52.40;;;30.95;;
77105;SDS011;66057;54.718;18.426;2022-12-18T03:29:55;56.53;;;32.35;;
77105;SDS011;66057;54.718;18.426;2022-12-18T03:32:40;41.05;;;23.65;;
77105;SDS011;66057;54.718;18.426;2022-12-18T03:35:12;50.00;;;27.75;;
77105;SDS011;66057;54.718;18.426;2022-12-18T03:37:43;54.60;;;33.05;;
77105;SDS011;66057;54.718;18.426;2022-12-18T03:40:08;42.30;;;19.70;;
77105;SDS011;66057;54.718;18.426;2022-12-18T03:45:18;41.67;;;23.15;;
77105;SDS011;66057;54.718;18.426;2022-12-18T03:47:54;51.50;;;28.08;;
77105;SDS011;66057;54.718;18.426;2022-12-18T03:52:59;44.72;;;24.73;;
77105;SDS011;66057;54.718;18.426;2022-12-18T03:55:46;50.20;;;30.80;;
77105;SDS011;66057;54.718;18.426;2022-12-18T03:58:15;48.90;;;32.67;;
77105;SDS011;66057;54.718;18.426;2022-12-18T04:00:44;54.95;;;33.30;;
77105;SDS011;66057;54.718;18.426;2022-12-18T04:03:13;45.25;;;28.15;;
77105;SDS011;66057;54.718;18.426;2022-12-18T04:05:40;52.28;;;26.52;;
77105;SDS011;66057;54.718;18.426;2022-12-18T04:08:08;44.22;;;28.55;;
77105;SDS011;66057;54.718;18.426;2022-12-18T04:10:34;46.15;;;26.63;;
77105;SDS011;66057;54.718;18.426;2022-12-18T04:13:00;40.72;;;21.63;;
77105;SDS011;66057;54.718;18.426;2022-12-18T04:15:26;47.58;;;28.88;;
77105;SDS011;66057;54.718;18.426;2022-12-18T04:17:52;41.30;;;24.55;;
77105;SDS011;66057;54.718;18.426;2022-12-18T04:20:17;39.20;;;20.42;;
77105;SDS011;66057;54.718;18.426;2022-12-18T04:22:43;51.55;;;26.95;;
77105;SDS011;66057;54.718;18.426;2022-12-18T04:25:09;40.33;;;21.83;;
77105;SDS011;66057;54.718;18.426;2022-12-18T04:27:35;43.55;;;25.52;;
77105;SDS011;66057;54.718;18.426;2022-12-18T04:30:00;33.50;;;19.35;;
77105;SDS011;66057;54.718;18.426;2022-12-18T04:32:26;47.28;;;25.67;;
77105;SDS011;66057;54.718;18.426;2022-12-18T04:34:52;46.80;;;24.27;;
77105;SDS011;66057;54.718;18.426;2022-12-18T04:37:18;36.50;;;19.80;;
77105;SDS011;66057;54.718;18.426;2022-12-18T04:39:43;34.72;;;22.23;;
77105;SDS011;66057;54.718;18.426;2022-12-18T04:42:09;41.97;;;27.15;;
77105;SDS011;66057;54.718;18.426;2022-12-18T04:44:35;40.85;;;23.85;;
77105;SDS011;66057;54.718;18.426;2022-12-18T04:47:02;41.08;;;23.45;;
77105;SDS011;66057;54.718;18.426;2022-12-18T04:49:27;23.92;;;12.80;;
77105;SDS011;66057;54.718;18.426;2022-12-18T04:51:53;45.22;;;25.13;;
77105;SDS011;66057;54.718;18.426;2022-12-18T04:54:18;37.50;;;20.05;;
77105;SDS011;66057;54.718;18.426;2022-12-18T04:56:44;44.08;;;23.30;;
77105;SDS011;66057;54.718;18.426;2022-12-18T04:59:10;30.00;;;19.08;;
77105;SDS011;66057;54.718;18.426;2022-12-18T05:01:36;39.28;;;25.92;;
77105;SDS011;66057;54.718;18.426;2022-12-18T05:04:02;43.28;;;29.42;;
77105;SDS011;66057;54.718;18.426;2022-12-18T05:06:28;34.85;;;21.70;;
77105;SDS011;66057;54.718;18.426;2022-12-18T05:08:53;37.72;;;23.75;;
77105;SDS011;66057;54.718;18.426;2022-12-18T05:11:19;37.85;;;22.25;;
77105;SDS011;66057;54.718;18.426;2022-12-18T05:13:45;39.15;;;26.33;;
77105;SDS011;66057;54.718;18.426;2022-12-18T05:16:12;43.35;;;26.90;;
77105;SDS011;66057;54.718;18.426;2022-12-18T05:18:38;41.50;;;27.48;;
77105;SDS011;66057;54.718;18.426;2022-12-18T05:21:04;30.33;;;18.45;;
77105;SDS011;66057;54.718;18.426;2022-12-18T05:23:30;38.15;;;23.65;;
77105;SDS011;66057;54.718;18.426;2022-12-18T05:25:59;40.20;;;22.05;;
77105;SDS011;66057;54.718;18.426;2022-12-18T05:28:28;32.30;;;19.55;;
77105;SDS011;66057;54.718;18.426;2022-12-18T05:30:56;40.65;;;22.35;;
77105;SDS011;66057;54.718;18.426;2022-12-18T05:33:24;38.65;;;20.95;;
77105;SDS011;66057;54.718;18.426;2022-12-18T05:35:51;41.63;;;29.60;;
77105;SDS011;66057;54.718;18.426;2022-12-18T05:38:18;30.15;;;20.67;;
77105;SDS011;66057;54.718;18.426;2022-12-18T05:40:46;30.98;;;19.95;;
77105;SDS011;66057;54.718;18.426;2022-12-18T05:43:13;30.10;;;20.50;;
77105;SDS011;66057;54.718;18.426;2022-12-18T05:45:39;35.10;;;23.92;;
77105;SDS011;66057;54.718;18.426;2022-12-18T05:48:05;26.85;;;18.40;;
77105;SDS011;66057;54.718;18.426;2022-12-18T05:50:35;26.20;;;16.30;;
77105;SDS011;66057;54.718;18.426;2022-12-18T05:53:01;30.10;;;18.40;;
77105;SDS011;66057;54.718;18.426;2022-12-18T05:55:28;28.83;;;16.67;;
77105;SDS011;66057;54.718;18.426;2022-12-18T05:57:54;29.42;;;18.38;;
77105;SDS011;66057;54.718;18.426;2022-12-18T06:00:20;31.50;;;19.85;;
77105;SDS011;66057;54.718;18.426;2022-12-18T06:02:48;23.48;;;14.25;;
77105;SDS011;66057;54.718;18.426;2022-12-18T06:05:14;23.63;;;13.27;;
77105;SDS011;66057;54.718;18.426;2022-12-18T06:07:40;29.00;;;16.70;;
77105;SDS011;66057;54.718;18.426;2022-12-18T06:10:06;26.80;;;16.83;;
77105;SDS011;66057;54.718;18.426;2022-12-18T06:12:32;30.83;;;16.13;;
77105;SDS011;66057;54.718;18.426;2022-12-18T06:14:59;29.80;;;18.80;;
77105;SDS011;66057;54.718;18.426;2022-12-18T06:17:29;49.80;;;30.23;;
77105;SDS011;66057;54.718;18.426;2022-12-18T06:19:55;61.35;;;41.70;;
77105;SDS011;66057;54.718;18.426;2022-12-18T06:22:21;33.33;;;23.27;;
77105;SDS011;66057;54.718;18.426;2022-12-18T06:24:46;25.00;;;16.38;;
77105;SDS011;66057;54.718;18.426;2022-12-18T06:27:12;27.83;;;17.60;;
77105;SDS011;66057;54.718;18.426;2022-12-18T06:29:38;27.48;;;19.42;;
77105;SDS011;66057;54.718;18.426;2022-12-18T06:32:04;25.25;;;14.65;;
77105;SDS011;66057;54.718;18.426;2022-12-18T06:34:30;23.92;;;15.90;;
77105;SDS011;66057;54.718;18.426;2022-12-18T06:36:55;29.85;;;17.92;;
77105;SDS011;66057;54.718;18.426;2022-12-18T06:39:21;28.35;;;19.25;;
77105;SDS011;66057;54.718;18.426;2022-12-18T06:41:47;31.27;;;19.95;;
77105;SDS011;66057;54.718;18.426;2022-12-18T06:44:12;31.67;;;20.48;;
77105;SDS011;66057;54.718;18.426;2022-12-18T06:46:38;27.58;;;19.00;;
77105;SDS011;66057;54.718;18.426;2022-12-18T06:49:04;32.50;;;22.83;;
77105;SDS011;66057;54.718;18.426;2022-12-18T06:51:30;48.17;;;35.22;;
77105;SDS011;66057;54.718;18.426;2022-12-18T06:53:56;32.55;;;21.27;;
77105;SDS011;66057;54.718;18.426;2022-12-18T06:56:21;26.95;;;18.13;;
77105;SDS011;66057;54.718;18.426;2022-12-18T06:58:47;27.73;;;14.13;;
77105;SDS011;66057;54.718;18.426;2022-12-18T07:01:13;26.83;;;19.33;;
77105;SDS011;66057;54.718;18.426;2022-12-18T07:03:40;27.50;;;17.63;;
77105;SDS011;66057;54.718;18.426;2022-12-18T07:06:11;29.42;;;19.45;;
77105;SDS011;66057;54.718;18.426;2022-12-18T07:08:39;22.40;;;14.63;;
77105;SDS011;66057;54.718;18.426;2022-12-18T07:11:05;26.35;;;18.10;;
77105;SDS011;66057;54.718;18.426;2022-12-18T07:13:31;27.33;;;16.60;;
77105;SDS011;66057;54.718;18.426;2022-12-18T07:16:06;28.17;;;17.85;;
77105;SDS011;66057;54.718;18.426;2022-12-18T07:18:37;30.42;;;17.02;;
77105;SDS011;66057;54.718;18.426;2022-12-18T07:21:03;31.15;;;18.13;;
77105;SDS011;66057;54.718;18.426;2022-12-18T07:23:31;28.35;;;17.20;;
77105;SDS011;66057;54.718;18.426;2022-12-18T07:28:28;27.60;;;16.60;;
77105;SDS011;66057;54.718;18.426;2022-12-18T07:30:53;27.95;;;19.40;;
77105;SDS011;66057;54.718;18.426;2022-12-18T07:33:19;26.42;;;18.95;;
77105;SDS011;66057;54.718;18.426;2022-12-18T07:35:45;44.75;;;33.53;;
77105;SDS011;66057;54.718;18.426;2022-12-18T07:38:11;33.33;;;22.30;;
77105;SDS011;66057;54.718;18.426;2022-12-18T07:40:36;41.22;;;21.83;;
77105;SDS011;66057;54.718;18.426;2022-12-18T07:43:02;28.67;;;18.08;;
77105;SDS011;66057;54.718;18.426;2022-12-18T07:45:28;18.33;;;13.70;;
77105;SDS011;66057;54.718;18.426;2022-12-18T07:47:53;20.23;;;14.73;;
77105;SDS011;66057;54.718;18.426;2022-12-18T07:50:19;25.65;;;13.85;;
77105;SDS011;66057;54.718;18.426;2022-12-18T07:52:45;28.50;;;20.15;;
77105;SDS011;66057;54.718;18.426;2022-12-18T07:55:11;30.33;;;21.65;;
77105;SDS011;66057;54.718;18.426;2022-12-18T07:57:36;33.60;;;22.30;;
77105;SDS011;66057;54.718;18.426;2022-12-18T08:00:02;30.13;;;17.77;;
77105;SDS011;66057;54.718;18.426;2022-12-18T08:02:30;34.00;;;20.85;;
77105;SDS011;66057;54.718;18.426;2022-12-18T08:04:56;25.00;;;16.38;;
77105;SDS011;66057;54.718;18.426;2022-12-18T08:07:22;28.02;;;17.52;;
77105;SDS011;66057;54.718;18.426;2022-12-18T08:09:48;20.80;;;13.00;;
77105;SDS011;66057;54.718;18.426;2022-12-18T08:12:13;32.95;;;21.50;;
77105;SDS011;66057;54.718;18.426;2022-12-18T08:14:39;32.38;;;24.92;;
77105;SDS011;66057;54.718;18.426;2022-12-18T08:17:06;33.83;;;23.52;;
77105;SDS011;66057;54.718;18.426;2022-12-18T08:19:32;25.27;;;17.50;;
77105;SDS011;66057;54.718;18.426;2022-12-18T08:21:57;30.00;;;20.77;;
77105;SDS011;66057;54.718;18.426;2022-12-18T08:24:23;43.47;;;25.30;;
77105;SDS011;66057;54.718;18.426;2022-12-18T08:26:49;31.67;;;21.08;;
77105;SDS011;66057;54.718;18.426;2022-12-18T08:29:15;35.85;;;23.25;;
77105;SDS011;66057;54.718;18.426;2022-12-18T08:31:41;30.77;;;19.70;;
77105;SDS011;66057;54.718;18.426;2022-12-18T08:34:07;32.25;;;22.33;;
77105;SDS011;66057;54.718;18.426;2022-12-18T08:36:33;25.92;;;18.77;;
77105;SDS011;66057;54.718;18.426;2022-12-18T08:38:59;23.02;;;17.17;;
77105;SDS011;66057;54.718;18.426;2022-12-18T08:41:25;20.40;;;12.98;;
77105;SDS011;66057;54.718;18.426;2022-12-18T08:43:50;25.48;;;16.13;;
77105;SDS011;66057;54.718;18.426;2022-12-18T08:46:39;22.30;;;13.75;;
77105;SDS011;66057;54.718;18.426;2022-12-18T08:49:06;20.60;;;11.85;;
77105;SDS011;66057;54.718;18.426;2022-12-18T08:51:32;17.77;;;12.38;;
77105;SDS011;66057;54.718;18.426;2022-12-18T08:53:59;20.27;;;14.43;;
77105;SDS011;66057;54.718;18.426;2022-12-18T08:56:25;19.02;;;14.05;;
77105;SDS011;66057;54.718;18.426;2022-12-18T08:58:51;20.33;;;13.75;;
77105;SDS011;66057;54.718;18.426;2022-12-18T09:01:20;21.95;;;15.13;;
77105;SDS011;66057;54.718;18.426;2022-12-18T09:03:50;21.08;;;15.27;;
77105;SDS011;66057;54.718;18.426;2022-12-18T09:06:16;18.08;;;13.88;;
77105;SDS011;66057;54.718;18.426;2022-12-18T09:08:43;14.73;;;9.90;;
77105;SDS011;66057;54.718;18.426;2022-12-18T09:11:28;14.85;;;10.00;;
77105;SDS011;66057;54.718;18.426;2022-12-18T09:13:55;22.65;;;17.30;;
77105;SDS011;66057;54.718;18.426;2022-12-18T09:16:22;23.55;;;13.60;;
77105;SDS011;66057;54.718;18.426;2022-12-18T09:18:48;26.80;;;17.77;;
77105;SDS011;66057;54.718;18.426;2022-12-18T09:21:15;23.50;;;15.02;;
77105;SDS011;66057;54.718;18.426;2022-12-18T09:23:42;26.48;;;15.90;;
77105;SDS011;66057;54.718;18.426;2022-12-18T09:26:08;26.90;;;15.95;;
77105;SDS011;66057;54.718;18.426;2022-12-18T09:28:34;30.70;;;20.15;;
77105;SDS011;66057;54.718;18.426;2022-12-18T09:31:03;18.77;;;13.10;;
77105;SDS011;66057;54.718;18.426;2022-12-18T09:33:33;23.63;;;14.93;;
77105;SDS011;66057;54.718;18.426;2022-12-18T09:36:04;25.27;;;16.38;;
77105;SDS011;66057;54.718;18.426;2022-12-18T09:38:31;22.50;;;12.50;;
77105;SDS011;66057;54.718;18.426;2022-12-18T09:41:16;21.90;;;14.88;;
77105;SDS011;66057;54.718;18.426;2022-12-18T09:43:54;28.30;;;17.95;;
77105;SDS011;66057;54.718;18.426;2022-12-18T09:46:26;23.83;;;16.73;;
77105;SDS011;66057;54.718;18.426;2022-12-18T09:48:56;22.77;;;13.90;;
77105;SDS011;66057;54.718;18.426;2022-12-18T09:51:37;28.98;;;18.63;;
77105;SDS011;66057;54.718;18.426;2022-12-18T09:54:12;22.60;;;13.43;;
77105;SDS011;66057;54.718;18.426;2022-12-18T09:56:43;33.28;;;21.65;;
77105;SDS011;66057;54.718;18.426;2022-12-18T10:02:11;24.77;;;18.65;;
77105;SDS011;66057;54.718;18.426;2022-12-18T10:04:40;23.83;;;15.30;;
77105;SDS011;66057;54.718;18.426;2022-12-18T10:07:13;17.00;;;11.23;;
77105;SDS011;66057;54.718;18.426;2022-12-18T10:09:57;24.73;;;16.00;;
77105;SDS011;66057;54.718;18.426;2022-12-18T10:12:34;30.30;;;19.58;;
77105;SDS011;66057;54.718;18.426;2022-12-18T10:17:45;18.85;;;13.50;;
77105;SDS011;66057;54.718;18.426;2022-12-18T10:20:32;24.85;;;17.05;;
77105;SDS011;66057;54.718;18.426;2022-12-18T10:23:13;24.48;;;15.15;;
77105;SDS011;66057;54.718;18.426;2022-12-18T10:25:57;16.52;;;9.40;;
77105;SDS011;66057;54.718;18.426;2022-12-18T10:28:25;23.58;;;16.63;;
77105;SDS011;66057;54.718;18.426;2022-12-18T10:30:51;22.05;;;15.40;;
77105;SDS011;66057;54.718;18.426;2022-12-18T10:33:22;21.23;;;12.13;;
77105;SDS011;66057;54.718;18.426;2022-12-18T10:35:50;27.10;;;16.75;;
77105;SDS011;66057;54.718;18.426;2022-12-18T10:41:02;25.00;;;16.73;;
77105;SDS011;66057;54.718;18.426;2022-12-18T10:43:34;25.77;;;18.58;;
77105;SDS011;66057;54.718;18.426;2022-12-18T10:46:07;23.77;;;16.20;;
77105;SDS011;66057;54.718;18.426;2022-12-18T10:51:16;23.98;;;16.08;;
77105;SDS011;66057;54.718;18.426;2022-12-18T10:54:05;12.98;;;7.05;;
77105;SDS011;66057;54.718;18.426;2022-12-18T10:56:38;16.67;;;10.70;;
77105;SDS011;66057;54.718;18.426;2022-12-18T10:59:05;18.05;;;10.70;;
77105;SDS011;66057;54.718;18.426;2022-12-18T11:04:29;17.92;;;11.07;;
77105;SDS011;66057;54.718;18.426;2022-12-18T11:07:00;19.23;;;12.43;;
77105;SDS011;66057;54.718;18.426;2022-12-18T11:09:30;17.83;;;12.00;;
77105;SDS011;66057;54.718;18.426;2022-12-18T11:11:58;12.00;;;6.85;;
77105;SDS011;66057;54.718;18.426;2022-12-18T11:14:29;15.80;;;9.63;;
77105;SDS011;66057;54.718;18.426;2022-12-18T11:16:58;20.15;;;12.27;;
77105;SDS011;66057;54.718;18.426;2022-12-18T11:19:30;17.95;;;12.18;;
77105;SDS011;66057;54.718;18.426;2022-12-18T11:21:58;12.57;;;8.55;;
77105;SDS011;66057;54.718;18.426;2022-12-18T11:24:28;19.35;;;11.90;;
77105;SDS011;66057;54.718;18.426;2022-12-18T11:27:00;18.73;;;12.55;;
77105;SDS011;66057;54.718;18.426;2022-12-18T11:29:34;23.27;;;13.02;;
77105;SDS011;66057;54.718;18.426;2022-12-18T11:34:39;24.83;;;16.13;;
77105;SDS011;66057;54.718;18.426;2022-12-18T11:37:10;18.13;;;12.13;;
77105;SDS011;66057;54.718;18.426;2022-12-18T11:42:38;24.65;;;16.30;;
77105;SDS011;66057;54.718;18.426;2022-12-18T11:47:47;13.98;;;10.02;;
77105;SDS011;66057;54.718;18.426;2022-12-18T11:50:38;23.55;;;13.68;;
77105;SDS011;66057;54.718;18.426;2022-12-18T11:53:11;21.77;;;13.98;;
77105;SDS011;66057;54.718;18.426;2022-12-18T12:01:16;21.45;;;13.55;;
77105;SDS011;66057;54.718;18.426;2022-12-18T12:09:39;15.38;;;12.25;;
77105;SDS011;66057;54.718;18.426;2022-12-18T12:15:27;20.85;;;12.02;;
77105;SDS011;66057;54.718;18.426;2022-12-18T12:18:20;24.67;;;17.33;;
77105;SDS011;66057;54.718;18.426;2022-12-18T12:21:02;18.88;;;12.23;;
77105;SDS011;66057;54.718;18.426;2022-12-18T12:26:27;19.20;;;12.77;;
77105;SDS011;66057;54.718;18.426;2022-12-18T12:34:21;19.27;;;11.20;;
77105;SDS011;66057;54.718;18.426;2022-12-18T12:37:07;15.50;;;8.60;;
77105;SDS011;66057;54.718;18.426;2022-12-18T12:39:49;16.75;;;9.02;;
77105;SDS011;66057;54.718;18.426;2022-12-18T12:42:39;15.30;;;9.63;;
77105;SDS011;66057;54.718;18.426;2022-12-18T12:48:01;17.67;;;11.27;;
77105;SDS011;66057;54.718;18.426;2022-12-18T12:50:30;11.82;;;7.25;;
77105;SDS011;66057;54.718;18.426;2022-12-18T12:52:59;16.60;;;10.32;;
77105;SDS011;66057;54.718;18.426;2022-12-18T12:55:32;18.58;;;11.82;;
77105;SDS011;66057;54.718;18.426;2022-12-18T13:00:25;16.02;;;10.85;;
77105;SDS011;66057;54.718;18.426;2022-12-18T13:05:38;18.83;;;11.90;;
77105;SDS011;66057;54.718;18.426;2022-12-18T13:08:11;24.65;;;12.27;;
77105;SDS011;66057;54.718;18.426;2022-12-18T13:10:47;18.35;;;10.35;;
77105;SDS011;66057;54.718;18.426;2022-12-18T13:13:14;19.52;;;11.30;;
77105;SDS011;66057;54.718;18.426;2022-12-18T13:18:15;12.80;;;9.00;;
77105;SDS011;66057;54.718;18.426;2022-12-18T13:25:49;14.93;;;9.82;;
77105;SDS011;66057;54.718;18.426;2022-12-18T13:28:18;24.08;;;16.80;;
77105;SDS011;66057;54.718;18.426;2022-12-18T13:35:53;12.90;;;7.68;;
77105;SDS011;66057;54.718;18.426;2022-12-18T13:38:36;16.95;;;11.63;;
77105;SDS011;66057;54.718;18.426;2022-12-18T13:48:49;16.25;;;10.07;;
77105;SDS011;66057;54.718;18.426;2022-12-18T13:51:16;14.10;;;9.15;;
77105;SDS011;66057;54.718;18.426;2022-12-18T13:53:47;13.70;;;7.63;;
77105;SDS011;66057;54.718;18.426;2022-12-18T13:56:25;10.25;;;6.85;;
77105;SDS011;66057;54.718;18.426;2022-12-18T13:59:10;11.73;;;7.82;;
77105;SDS011;66057;54.718;18.426;2022-12-18T14:01:59;10.70;;;3.45;;
77105;SDS011;66057;54.718;18.426;2022-12-18T14:04:34;9.95;;;6.07;;
77105;SDS011;66057;54.718;18.426;2022-12-18T14:07:04;9.90;;;6.22;;
77105;SDS011;66057;54.718;18.426;2022-12-18T14:09:36;10.55;;;5.57;;
77105;SDS011;66057;54.718;18.426;2022-12-18T14:12:05;15.00;;;7.18;;
77105;SDS011;66057;54.718;18.426;2022-12-18T14:14:51;11.23;;;8.05;;
77105;SDS011;66057;54.718;18.426;2022-12-18T14:17:18;13.90;;;6.90;;
77105;SDS011;66057;54.718;18.426;2022-12-18T14:19:44;11.88;;;8.45;;
77105;SDS011;66057;54.718;18.426;2022-12-18T14:22:14;12.95;;;6.35;;
77105;SDS011;66057;54.718;18.426;2022-12-18T14:24:42;16.55;;;11.45;;
77105;SDS011;66057;54.718;18.426;2022-12-18T14:27:22;16.35;;;9.95;;
77105;SDS011;66057;54.718;18.426;2022-12-18T14:29:49;14.00;;;9.02;;
77105;SDS011;66057;54.718;18.426;2022-12-18T14:32:19;17.15;;;10.02;;
77105;SDS011;66057;54.718;18.426;2022-12-18T14:34:49;12.50;;;8.48;;
77105;SDS011;66057;54.718;18.426;2022-12-18T14:37:19;16.35;;;10.15;;
77105;SDS011;66057;54.718;18.426;2022-12-18T14:39:57;16.30;;;9.13;;
77105;SDS011;66057;54.718;18.426;2022-12-18T14:42:25;22.73;;;14.15;;
77105;SDS011;66057;54.718;18.426;2022-12-18T14:47:57;19.45;;;11.23;;
77105;SDS011;66057;54.718;18.426;2022-12-18T14:50:23;17.98;;;11.52;;
77105;SDS011;66057;54.718;18.426;2022-12-18T14:52:50;16.27;;;10.35;;
77105;SDS011;66057;54.718;18.426;2022-12-18T14:55:16;14.68;;;9.93;;
77105;SDS011;66057;54.718;18.426;2022-12-18T14:57:44;17.77;;;11.25;;
77105;SDS011;66057;54.718;18.426;2022-12-18T15:00:19;16.63;;;10.88;;
77105;SDS011;66057;54.718;18.426;2022-12-18T15:02:50;22.65;;;13.82;;
77105;SDS011;66057;54.718;18.426;2022-12-18T15:05:20;20.02;;;13.15;;
77105;SDS011;66057;54.718;18.426;2022-12-18T15:07:50;9.82;;;4.47;;
77105;SDS011;66057;54.718;18.426;2022-12-18T15:10:19;12.35;;;7.35;;
77105;SDS011;66057;54.718;18.426;2022-12-18T15:17:59;8.38;;;4.22;;
77105;SDS011;66057;54.718;18.426;2022-12-18T15:22:53;15.10;;;7.95;;
77105;SDS011;66057;54.718;18.426;2022-12-18T15:25:31;11.30;;;7.68;;
77105;SDS011;66057;54.718;18.426;2022-12-18T15:27:59;27.80;;;18.75;;
77105;SDS011;66057;54.718;18.426;2022-12-18T15:30:25;25.63;;;12.63;;
77105;SDS011;66057;54.718;18.426;2022-12-18T15:32:52;23.23;;;11.18;;
77105;SDS011;66057;54.718;18.426;2022-12-18T15:38:27;42.80;;;22.38;;
77105;SDS011;66057;54.718;18.426;2022-12-18T15:40:53;26.77;;;16.02;;
77105;SDS011;66057;54.718;18.426;2022-12-18T15:43:23;27.52;;;16.17;;
77105;SDS011;66057;54.718;18.426;2022-12-18T15:46:11;46.90;;;25.40;;
77105;SDS011;66057;54.718;18.426;2022-12-18T15:48:39;42.45;;;24.75;;
77105;SDS011;66057;54.718;18.426;2022-12-18T15:51:16;22.95;;;13.55;;
77105;SDS011;66057;54.718;18.426;2022-12-18T15:53:46;28.52;;;14.55;;
77105;SDS011;66057;54.718;18.426;2022-12-18T15:56:17;21.75;;;8.50;;
77105;SDS011;66057;54.718;18.426;2022-12-18T15:59:02;10.80;;;6.25;;
77105;SDS011;66057;54.718;18.426;2022-12-18T16:01:30;15.27;;;9.60;;
77105;SDS011;66057;54.718;18.426;2022-12-18T16:03:59;18.13;;;8.15;;
77105;SDS011;66057;54.718;18.426;2022-12-18T16:06:24;11.73;;;7.28;;
77105;SDS011;66057;54.718;18.426;2022-12-18T16:08:50;11.20;;;8.48;;
77105;SDS011;66057;54.718;18.426;2022-12-18T16:11:23;16.20;;;9.68;;
77105;SDS011;66057;54.718;18.426;2022-12-18T16:14:18;20.65;;;10.60;;
77105;SDS011;66057;54.718;18.426;2022-12-18T16:16:46;6.93;;;4.50;;
77105;SDS011;66057;54.718;18.426;2022-12-18T16:19:17;7.90;;;5.40;;
77105;SDS011;66057;54.718;18.426;2022-12-18T16:21:43;28.90;;;13.90;;